sensor_id;sensor_type;location;lat;lon;timestamp;pressure;altitude;pressure_sealevel;temperature;humidity
75072;BME280;63651;55.728;38.022;2023-05-23T00:03:44;99915.53;;;16.10;54.85
75072;BME280;63651;55.728;38.022;2023-05-23T00:08:47;99918.72;;;16.07;55.01
75072;BME280;63651;55.728;38.022;2023-05-23T00:13:48;99916.22;;;16.06;54.73
75072;BME280;63651;55.728;38.022;2023-05-23T00:18:51;99911.44;;;16.01;54.80
75072;BME280;63651;55.728;38.022;2023-05-23T00:23:53;99914.63;;;15.98;54.40
75072;BME280;63651;55.728;38.022;2023-05-23T00:28:54;99915.94;;;15.95;54.29
75072;BME280;63651;55.728;38.022;2023-05-23T00:33:56;99915.69;;;15.97;53.79
75072;BME280;63651;55.728;38.022;2023-05-23T00:38:57;99922.72;;;15.93;53.25
75072;BME280;63651;55.728;38.022;2023-05-23T00:43:58;99921.88;;;15.92;52.59
75072;BME280;63651;55.728;38.022;2023-05-23T00:48:59;99915.09;;;15.95;52.88
75072;BME280;63651;55.728;38.022;2023-05-23T00:54:02;99910.47;;;15.95;52.66
75072;BME280;63651;55.728;38.022;2023-05-23T00:59:05;99911.53;;;15.94;52.56
75072;BME280;63651;55.728;38.022;2023-05-23T01:04:07;99912.13;;;15.96;51.79
75072;BME280;63651;55.728;38.022;2023-05-23T01:09:08;99914.16;;;16.01;51.89
75072;BME280;63651;55.728;38.022;2023-05-23T01:14:13;99915.84;;;16.02;51.62
75072;BME280;63651;55.728;38.022;2023-05-23T01:19:48;99911.56;;;16.06;51.57
75072;BME280;63651;55.728;38.022;2023-05-23T01:25:10;99904.28;;;16.00;51.94
75072;BME280;63651;55.728;38.022;2023-05-23T01:30:18;99906.41;;;15.98;52.31
75072;BME280;63651;55.728;38.022;2023-05-23T01:35:24;99904.28;;;16.00;51.94
75072;BME280;63651;55.728;38.022;2023-05-23T01:40:29;99905.59;;;15.97;51.62
75072;BME280;63651;55.728;38.022;2023-05-23T01:45:30;99899.03;;;15.98;51.61
75072;BME280;63651;55.728;38.022;2023-05-23T01:50:31;99898.19;;;15.98;51.30
75072;BME280;63651;55.728;38.022;2023-05-23T01:55:33;99911.06;;;15.97;51.59
75072;BME280;63651;55.728;38.022;2023-05-23T02:00:35;99895.91;;;15.95;51.35
75072;BME280;63651;55.728;38.022;2023-05-23T02:05:36;99896.75;;;15.95;51.60
75072;BME280;63651;55.728;38.022;2023-05-23T02:10:37;99899.34;;;15.90;51.27
75072;BME280;63651;55.728;38.022;2023-05-23T02:15:38;99896.16;;;15.93;51.55
75072;BME280;63651;55.728;38.022;2023-05-23T02:20:39;99902.25;;;15.95;51.43
75072;BME280;63651;55.728;38.022;2023-05-23T02:25:40;99898.88;;;15.93;51.36
75072;BME280;63651;55.728;38.022;2023-05-23T02:30:41;99895.69;;;15.96;51.40
75072;BME280;63651;55.728;38.022;2023-05-23T02:35:42;99901.78;;;15.98;51.54
75072;BME280;63651;55.728;38.022;2023-05-23T02:40:43;99905.34;;;15.99;51.44
75072;BME280;63651;55.728;38.022;2023-05-23T02:45:45;99903.81;;;16.03;51.41
75072;BME280;63651;55.728;38.022;2023-05-23T02:50:46;99911.72;;;16.11;50.98
75072;BME280;63651;55.728;38.022;2023-05-23T02:55:47;99907.09;;;16.23;50.73
75072;BME280;63651;55.728;38.022;2023-05-23T03:00:48;99909.66;;;16.37;50.34
75072;BME280;63651;55.728;38.022;2023-05-23T03:05:49;99908.47;;;16.44;50.09
75072;BME280;63651;55.728;38.022;2023-05-23T03:10:51;99902.88;;;16.51;49.88
75072;BME280;63651;55.728;38.022;2023-05-23T03:15:52;99900.88;;;16.58;49.62
75072;BME280;63651;55.728;38.022;2023-05-23T03:20:53;99896.97;;;16.66;49.94
75072;BME280;63651;55.728;38.022;2023-05-23T03:25:54;99893.53;;;16.70;49.61
75072;BME280;63651;55.728;38.022;2023-05-23T03:30:55;99901.28;;;16.73;49.34
75072;BME280;63651;55.728;38.022;2023-05-23T03:35:56;99899.25;;;16.80;49.44
75072;BME280;63651;55.728;38.022;2023-05-23T03:40:57;99895.91;;;16.78;49.52
75072;BME280;63651;55.728;38.022;2023-05-23T03:45:58;99894.47;;;16.76;50.13
75072;BME280;63651;55.728;38.022;2023-05-23T03:51:00;99903.91;;;16.80;49.84
75072;BME280;63651;55.728;38.022;2023-05-23T03:56:01;99882.31;;;16.83;50.10
75072;BME280;63651;55.728;38.022;2023-05-23T04:01:05;99889.47;;;16.84;50.11
75072;BME280;63651;55.728;38.022;2023-05-23T04:06:11;99879.69;;;16.88;50.33
75072;BME280;63651;55.728;38.022;2023-05-23T04:11:17;99891.16;;;16.85;50.68
75072;BME280;63651;55.728;38.022;2023-05-23T04:16:20;99896.44;;;16.99;50.50
75072;BME280;63651;55.728;38.022;2023-05-23T04:21:22;99888.91;;;17.06;50.23
75072;BME280;63651;55.728;38.022;2023-05-23T04:26:23;99904.19;;;17.13;50.54
75072;BME280;63651;55.728;38.022;2023-05-23T04:31:25;99915.16;;;17.25;50.82
75072;BME280;63651;55.728;38.022;2023-05-23T04:36:44;99912.41;;;17.25;51.24
75072;BME280;63651;55.728;38.022;2023-05-23T04:41:45;99918.38;;;17.10;51.51
75072;BME280;63651;55.728;38.022;2023-05-23T04:46:47;99914.78;;;17.45;51.72
75072;BME280;63651;55.728;38.022;2023-05-23T04:51:48;99928.94;;;17.65;52.47
75072;BME280;63651;55.728;38.022;2023-05-23T04:56:49;99927.03;;;17.66;52.18
75072;BME280;63651;55.728;38.022;2023-05-23T05:01:50;99914.47;;;17.81;51.85
75072;BME280;63651;55.728;38.022;2023-05-23T05:06:51;99924.22;;;18.01;51.14
75072;BME280;63651;55.728;38.022;2023-05-23T05:11:53;99929.81;;;18.06;51.14
75072;BME280;63651;55.728;38.022;2023-05-23T05:16:54;99933.00;;;18.14;50.84
75072;BME280;63651;55.728;38.022;2023-05-23T05:21:57;99932.75;;;18.16;50.58
75072;BME280;63651;55.728;38.022;2023-05-23T05:26:59;99942.06;;;18.27;51.40
75072;BME280;63651;55.728;38.022;2023-05-23T05:32:01;99934.25;;;18.80;50.59
75072;BME280;63651;55.728;38.022;2023-05-23T05:37:03;99929.56;;;19.14;50.23
75072;BME280;63651;55.728;38.022;2023-05-23T05:42:04;99912.25;;;19.36;50.78
75072;BME280;63651;55.728;38.022;2023-05-23T05:47:06;99920.13;;;19.49;50.32
75072;BME280;63651;55.728;38.022;2023-05-23T05:52:07;99915.78;;;19.70;50.02
75072;BME280;63651;55.728;38.022;2023-05-23T05:57:08;99912.72;;;19.66;48.09
75072;BME280;63651;55.728;38.022;2023-05-23T06:02:10;99901.34;;;19.46;47.86
75072;BME280;63651;55.728;38.022;2023-05-23T06:07:11;99897.16;;;19.22;48.06
75072;BME280;63651;55.728;38.022;2023-05-23T06:12:12;99901.41;;;19.29;48.06
75072;BME280;63651;55.728;38.022;2023-05-23T06:17:13;99893.34;;;19.44;47.94
75072;BME280;63651;55.728;38.022;2023-05-23T06:22:14;99881.81;;;19.64;47.41
75072;BME280;63651;55.728;38.022;2023-05-23T06:27:15;99880.16;;;19.63;47.43
75072;BME280;63651;55.728;38.022;2023-05-23T06:32:16;99872.78;;;19.69;47.68
75072;BME280;63651;55.728;38.022;2023-05-23T06:37:17;99860.91;;;19.68;47.73
75072;BME280;63651;55.728;38.022;2023-05-23T06:42:19;99841.41;;;19.75;48.10
75072;BME280;63651;55.728;38.022;2023-05-23T06:47:20;99831.28;;;20.07;47.65
75072;BME280;63651;55.728;38.022;2023-05-23T06:52:22;99837.38;;;20.09;47.87
75072;BME280;63651;55.728;38.022;2023-05-23T06:57:23;99852.00;;;20.10;47.82
75072;BME280;63651;55.728;38.022;2023-05-23T07:02:24;99849.56;;;20.13;47.78
75072;BME280;63651;55.728;38.022;2023-05-23T07:07:25;99846.63;;;20.25;47.77
75072;BME280;63651;55.728;38.022;2023-05-23T07:12:26;99855.16;;;20.51;47.69
75072;BME280;63651;55.728;38.022;2023-05-23T07:17:27;99839.06;;;20.74;46.96
75072;BME280;63651;55.728;38.022;2023-05-23T07:22:30;99845.66;;;20.68;47.35
75072;BME280;63651;55.728;38.022;2023-05-23T07:27:31;99849.19;;;20.96;47.25
75072;BME280;63651;55.728;38.022;2023-05-23T07:32:32;99862.50;;;21.04;46.96
75072;BME280;63651;55.728;38.022;2023-05-23T07:37:33;99873.50;;;20.67;48.54
75072;BME280;63651;55.728;38.022;2023-05-23T07:42:34;99868.66;;;20.79;48.41
75072;BME280;63651;55.728;38.022;2023-05-23T07:47:36;99867.13;;;20.93;47.58
75072;BME280;63651;55.728;38.022;2023-05-23T07:52:37;99869.53;;;20.85;48.12
75072;BME280;63651;55.728;38.022;2023-05-23T07:57:38;99876.19;;;20.89;48.03
75072;BME280;63651;55.728;38.022;2023-05-23T08:02:40;99880.09;;;20.61;49.29
75072;BME280;63651;55.728;38.022;2023-05-23T08:07:41;99885.91;;;20.37;49.98
75072;BME280;63651;55.728;38.022;2023-05-23T08:12:42;99886.97;;;20.31;50.14
75072;BME280;63651;55.728;38.022;2023-05-23T08:17:43;99881.03;;;20.18;50.72
75072;BME280;63651;55.728;38.022;2023-05-23T08:22:44;99884.38;;;20.20;50.97
75072;BME280;63651;55.728;38.022;2023-05-23T08:27:46;99881.34;;;20.21;51.09
75072;BME280;63651;55.728;38.022;2023-05-23T08:32:47;99878.22;;;20.12;51.73
75072;BME280;63651;55.728;38.022;2023-05-23T08:37:49;99877.25;;;20.24;51.58
75072;BME280;63651;55.728;38.022;2023-05-23T08:42:50;99862.66;;;20.28;51.58
75072;BME280;63651;55.728;38.022;2023-05-23T08:47:53;99865.16;;;20.30;51.68
75072;BME280;63651;55.728;38.022;2023-05-23T08:52:57;99868.13;;;20.23;51.99
75072;BME280;63651;55.728;38.022;2023-05-23T08:57:59;99866.00;;;20.30;52.25
75072;BME280;63651;55.728;38.022;2023-05-23T09:03:00;99866.59;;;20.64;51.55
75072;BME280;63651;55.728;38.022;2023-05-23T09:08:01;99869.41;;;20.69;51.55
75072;BME280;63651;55.728;38.022;2023-05-23T09:13:03;99876.84;;;20.69;51.69
75072;BME280;63651;55.728;38.022;2023-05-23T09:18:04;99889.00;;;20.68;51.86
75072;BME280;63651;55.728;38.022;2023-05-23T09:23:05;99885.56;;;20.29;53.71
75072;BME280;63651;55.728;38.022;2023-05-23T09:28:08;99894.06;;;20.22;53.80
75072;BME280;63651;55.728;38.022;2023-05-23T09:33:09;99895.81;;;20.33;53.46
75072;BME280;63651;55.728;38.022;2023-05-23T09:38:12;99904.88;;;20.29;53.59
75072;BME280;63651;55.728;38.022;2023-05-23T09:48:36;99902.56;;;19.94;54.85
75072;BME280;63651;55.728;38.022;2023-05-23T09:53:38;99904.22;;;19.95;55.17
75072;BME280;63651;55.728;38.022;2023-05-23T09:58:39;99894.28;;;19.94;55.85
75072;BME280;63651;55.728;38.022;2023-05-23T10:03:47;99896.69;;;19.85;56.72
75072;BME280;63651;55.728;38.022;2023-05-23T10:09:04;99894.50;;;19.87;56.91
75072;BME280;63651;55.728;38.022;2023-05-23T10:14:07;99882.78;;;19.75;56.74
75072;BME280;63651;55.728;38.022;2023-05-23T10:19:16;99881.38;;;19.72;56.98
75072;BME280;63651;55.728;38.022;2023-05-23T10:24:20;99888.81;;;19.72;57.30
75072;BME280;63651;55.728;38.022;2023-05-23T10:29:22;99896.75;;;19.68;58.07
75072;BME280;63651;55.728;38.022;2023-05-23T10:34:27;99900.84;;;19.66;58.39
75072;BME280;63651;55.728;38.022;2023-05-23T10:39:41;99897.78;;;19.62;58.71
75072;BME280;63651;55.728;38.022;2023-05-23T10:44:46;99895.78;;;19.58;59.00
75072;BME280;63651;55.728;38.022;2023-05-23T10:49:51;99894.19;;;19.62;58.91
75072;BME280;63651;55.728;38.022;2023-05-23T10:54:54;99900.72;;;19.77;58.04
75072;BME280;63651;55.728;38.022;2023-05-23T10:59:58;99894.03;;;19.95;57.63
75072;BME280;63651;55.728;38.022;2023-05-23T11:05:17;99893.69;;;20.13;57.44
75072;BME280;63651;55.728;38.022;2023-05-23T11:10:20;99891.50;;;20.16;56.96
75072;BME280;63651;55.728;38.022;2023-05-23T11:15:21;99895.66;;;20.18;56.39
75072;BME280;63651;55.728;38.022;2023-05-23T11:20:24;99875.41;;;20.34;55.62
75072;BME280;63651;55.728;38.022;2023-05-23T11:25:41;99882.06;;;20.38;55.70
75072;BME280;63651;55.728;38.022;2023-05-23T11:30:43;99886.13;;;20.58;54.69
75072;BME280;63651;55.728;38.022;2023-05-23T11:35:48;99881.69;;;20.84;53.25
75072;BME280;63651;55.728;38.022;2023-05-23T11:40:49;99875.38;;;20.88;53.09
75072;BME280;63651;55.728;38.022;2023-05-23T11:45:50;99864.69;;;21.02;52.75
75072;BME280;63651;55.728;38.022;2023-05-23T11:50:52;99847.56;;;21.00;52.35
75072;BME280;63651;55.728;38.022;2023-05-23T11:55:56;99851.44;;;21.04;52.16
75072;BME280;63651;55.728;38.022;2023-05-23T12:01:02;99836.28;;;21.12;51.54
75072;BME280;63651;55.728;38.022;2023-05-23T12:06:03;99835.75;;;21.15;51.63
75072;BME280;63651;55.728;38.022;2023-05-23T12:11:04;99840.13;;;21.05;52.09
75072;BME280;63651;55.728;38.022;2023-05-23T12:16:06;99842.91;;;21.05;52.27
75072;BME280;63651;55.728;38.022;2023-05-23T12:21:07;99828.78;;;21.02;51.96
75072;BME280;63651;55.728;38.022;2023-05-23T12:26:08;99823.19;;;20.92;52.39
75072;BME280;63651;55.728;38.022;2023-05-23T12:36:24;99822.16;;;21.03;51.83
75072;BME280;63651;55.728;38.022;2023-05-23T12:41:26;99816.25;;;20.84;52.21
75072;BME280;63651;55.728;38.022;2023-05-23T12:46:27;99809.88;;;20.84;52.18
75072;BME280;63651;55.728;38.022;2023-05-23T12:51:28;99803.56;;;20.88;51.92
75072;BME280;63651;55.728;38.022;2023-05-23T13:01:49;99805.03;;;21.01;52.57
75072;BME280;63651;55.728;38.022;2023-05-23T13:06:50;99797.28;;;20.98;52.36
75072;BME280;63651;55.728;38.022;2023-05-23T13:11:53;99798.69;;;21.05;51.39
75072;BME280;63651;55.728;38.022;2023-05-23T13:16:54;99797.94;;;21.20;51.15
75072;BME280;63651;55.728;38.022;2023-05-23T13:21:56;99791.16;;;20.91;52.58
75072;BME280;63651;55.728;38.022;2023-05-23T13:26:58;99793.66;;;20.92;52.13
75072;BME280;63651;55.728;38.022;2023-05-23T13:31:59;99793.31;;;20.84;51.91
75072;BME280;63651;55.728;38.022;2023-05-23T13:37:01;99794.91;;;20.80;52.97
75072;BME280;63651;55.728;38.022;2023-05-23T13:42:02;99799.69;;;20.84;52.99
75072;BME280;63651;55.728;38.022;2023-05-23T13:47:13;99800.88;;;20.98;52.62
75072;BME280;63651;55.728;38.022;2023-05-23T13:52:14;99792.78;;;20.87;52.85
75072;BME280;63651;55.728;38.022;2023-05-23T13:57:15;99781.84;;;20.65;53.58
75072;BME280;63651;55.728;38.022;2023-05-23T14:02:17;99786.63;;;20.80;53.99
75072;BME280;63651;55.728;38.022;2023-05-23T14:07:18;99780.03;;;21.23;53.06
75072;BME280;63651;55.728;38.022;2023-05-23T14:12:19;99776.53;;;21.48;51.72
75072;BME280;63651;55.728;38.022;2023-05-23T14:17:20;99770.50;;;21.71;51.01
75072;BME280;63651;55.728;38.022;2023-05-23T14:22:22;99775.47;;;21.69;51.74
75072;BME280;63651;55.728;38.022;2023-05-23T14:27:23;99765.28;;;21.90;51.47
75072;BME280;63651;55.728;38.022;2023-05-23T14:32:24;99758.72;;;22.16;50.51
75072;BME280;63651;55.728;38.022;2023-05-23T14:37:25;99750.69;;;22.20;50.18
75072;BME280;63651;55.728;38.022;2023-05-23T14:42:26;99744.88;;;22.11;49.98
75072;BME280;63651;55.728;38.022;2023-05-23T14:47:27;99749.59;;;22.21;49.49
75072;BME280;63651;55.728;38.022;2023-05-23T14:52:28;99740.16;;;22.42;49.26
75072;BME280;63651;55.728;38.022;2023-05-23T14:57:29;99726.00;;;22.69;48.45
75072;BME280;63651;55.728;38.022;2023-05-23T15:02:31;99716.63;;;22.50;49.04
75072;BME280;63651;55.728;38.022;2023-05-23T15:07:32;99721.06;;;22.46;49.13
75072;BME280;63651;55.728;38.022;2023-05-23T15:12:33;99724.94;;;22.45;48.75
75072;BME280;63651;55.728;38.022;2023-05-23T15:17:35;99722.75;;;22.26;49.79
75072;BME280;63651;55.728;38.022;2023-05-23T15:22:36;99725.53;;;22.16;50.57
75072;BME280;63651;55.728;38.022;2023-05-23T15:27:37;99709.13;;;21.69;51.02
75072;BME280;63651;55.728;38.022;2023-05-23T15:32:38;99705.53;;;21.79;50.92
75072;BME280;63651;55.728;38.022;2023-05-23T15:37:40;99698.84;;;21.44;52.44
75072;BME280;63651;55.728;38.022;2023-05-23T15:42:42;99688.50;;;21.09;52.95
75072;BME280;63651;55.728;38.022;2023-05-23T15:47:43;99681.16;;;20.77;53.94
75072;BME280;63651;55.728;38.022;2023-05-23T15:52:44;99675.53;;;20.57;54.55
75072;BME280;63651;55.728;38.022;2023-05-23T15:57:45;99676.31;;;20.48;55.00
75072;BME280;63651;55.728;38.022;2023-05-23T16:02:46;99670.97;;;20.36;55.82
75072;BME280;63651;55.728;38.022;2023-05-23T16:07:47;99667.56;;;20.24;56.19
75072;BME280;63651;55.728;38.022;2023-05-23T16:12:49;99680.19;;;20.14;56.42
75072;BME280;63651;55.728;38.022;2023-05-23T16:17:50;99683.16;;;20.03;57.21
75072;BME280;63651;55.728;38.022;2023-05-23T16:22:51;99681.81;;;19.73;58.69
75072;BME280;63651;55.728;38.022;2023-05-23T16:27:53;99682.13;;;19.77;58.92
75072;BME280;63651;55.728;38.022;2023-05-23T16:32:54;99683.06;;;19.61;59.62
75072;BME280;63651;55.728;38.022;2023-05-23T16:37:55;99685.56;;;19.40;60.51
75072;BME280;63651;55.728;38.022;2023-05-23T16:48:53;99675.28;;;19.31;61.16
75072;BME280;63651;55.728;38.022;2023-05-23T16:53:54;99688.16;;;19.25;61.49
75072;BME280;63651;55.728;38.022;2023-05-23T16:58:55;99681.28;;;19.28;61.55
75072;BME280;63651;55.728;38.022;2023-05-23T17:03:56;99687.94;;;19.32;60.95
75072;BME280;63651;55.728;38.022;2023-05-23T17:08:57;99690.25;;;19.40;60.30
75072;BME280;63651;55.728;38.022;2023-05-23T17:13:58;99680.88;;;19.41;60.25
75072;BME280;63651;55.728;38.022;2023-05-23T17:19:00;99662.47;;;19.46;60.27
75072;BME280;63651;55.728;38.022;2023-05-23T17:24:01;99646.84;;;19.25;61.00
75072;BME280;63651;55.728;38.022;2023-05-23T17:29:02;99649.28;;;19.48;60.33
75072;BME280;63651;55.728;38.022;2023-05-23T17:34:03;99637.22;;;19.28;60.98
75072;BME280;63651;55.728;38.022;2023-05-23T17:39:05;99632.34;;;19.08;62.10
75072;BME280;63651;55.728;38.022;2023-05-23T17:44:06;99631.91;;;18.94;62.55
75072;BME280;63651;55.728;38.022;2023-05-23T17:49:07;99625.78;;;18.87;62.50
75072;BME280;63651;55.728;38.022;2023-05-23T17:54:09;99621.38;;;18.86;62.79
75072;BME280;63651;55.728;38.022;2023-05-23T17:59:12;99626.69;;;18.71;63.24
75072;BME280;63651;55.728;38.022;2023-05-23T18:04:15;99620.66;;;18.74;63.47
75072;BME280;63651;55.728;38.022;2023-05-23T18:09:16;99604.78;;;18.81;62.71
75072;BME280;63651;55.728;38.022;2023-05-23T18:14:17;99614.19;;;18.85;62.37
75072;BME280;63651;55.728;38.022;2023-05-23T18:19:18;99598.66;;;18.74;63.00
75072;BME280;63651;55.728;38.022;2023-05-23T18:24:20;99617.13;;;18.57;64.03
75072;BME280;63651;55.728;38.022;2023-05-23T18:34:40;99612.78;;;18.39;64.58
75072;BME280;63651;55.728;38.022;2023-05-23T18:39:42;99614.00;;;18.48;64.55
75072;BME280;63651;55.728;38.022;2023-05-23T18:44:43;99613.22;;;18.31;65.11
75072;BME280;63651;55.728;38.022;2023-05-23T18:49:44;99617.19;;;18.40;64.39
75072;BME280;63651;55.728;38.022;2023-05-23T18:54:49;99615.78;;;18.37;64.28
75072;BME280;63651;55.728;38.022;2023-05-23T18:59:50;99616.03;;;18.19;65.16
75072;BME280;63651;55.728;38.022;2023-05-23T19:04:51;99606.00;;;18.08;65.41
75072;BME280;63651;55.728;38.022;2023-05-23T19:09:52;99623.75;;;18.00;65.29
75072;BME280;63651;55.728;38.022;2023-05-23T19:14:54;99619.50;;;17.92;65.89
75072;BME280;63651;55.728;38.022;2023-05-23T19:19:55;99617.19;;;17.84;66.39
75072;BME280;63651;55.728;38.022;2023-05-23T19:24:56;99610.28;;;17.82;66.41
75072;BME280;63651;55.728;38.022;2023-05-23T19:30:16;99609.44;;;17.81;66.18
75072;BME280;63651;55.728;38.022;2023-05-23T19:35:17;99611.34;;;17.81;66.03
75072;BME280;63651;55.728;38.022;2023-05-23T19:40:18;99605.28;;;17.79;66.02
75072;BME280;63651;55.728;38.022;2023-05-23T19:45:22;99597.94;;;18.01;65.17
75072;BME280;63651;55.728;38.022;2023-05-23T19:50:24;99601.91;;;18.10;64.71
75072;BME280;63651;55.728;38.022;2023-05-23T19:55:25;99597.88;;;18.18;64.54
75072;BME280;63651;55.728;38.022;2023-05-23T20:00:27;99583.97;;;18.25;64.11
75072;BME280;63651;55.728;38.022;2023-05-23T20:05:28;99579.88;;;18.27;63.85
75072;BME280;63651;55.728;38.022;2023-05-23T20:10:30;99576.75;;;18.40;63.29
75072;BME280;63651;55.728;38.022;2023-05-23T20:15:31;99573.50;;;18.43;63.14
75072;BME280;63651;55.728;38.022;2023-05-23T20:20:32;99572.47;;;18.49;62.99
75072;BME280;63651;55.728;38.022;2023-05-23T20:25:33;99572.28;;;18.56;62.69
75072;BME280;63651;55.728;38.022;2023-05-23T20:30:34;99576.19;;;18.60;62.49
75072;BME280;63651;55.728;38.022;2023-05-23T20:35:35;99576.19;;;18.60;61.96
75072;BME280;63651;55.728;38.022;2023-05-23T20:40:37;99586.19;;;18.66;61.62
75072;BME280;63651;55.728;38.022;2023-05-23T20:45:38;99584.06;;;18.73;61.33
75072;BME280;63651;55.728;38.022;2023-05-23T20:50:40;99582.78;;;18.81;60.73
75072;BME280;63651;55.728;38.022;2023-05-23T20:55:43;99590.72;;;18.77;60.72
75072;BME280;63651;55.728;38.022;2023-05-23T21:00:44;99587.69;;;18.79;60.27
75072;BME280;63651;55.728;38.022;2023-05-23T21:05:45;99591.91;;;18.86;60.38
75072;BME280;63651;55.728;38.022;2023-05-23T21:10:46;99595.44;;;18.82;60.18
75072;BME280;63651;55.728;38.022;2023-05-23T21:15:47;99586.16;;;18.88;59.93
75072;BME280;63651;55.728;38.022;2023-05-23T21:20:49;99595.25;;;18.89;60.10
75072;BME280;63651;55.728;38.022;2023-05-23T21:25:51;99587.50;;;18.85;59.61
75072;BME280;63651;55.728;38.022;2023-05-23T21:30:52;99594.41;;;18.88;59.25
75072;BME280;63651;55.728;38.022;2023-05-23T21:35:53;99594.72;;;18.92;59.13
75072;BME280;63651;55.728;38.022;2023-05-23T21:40:55;99595.25;;;18.89;59.09
75072;BME280;63651;55.728;38.022;2023-05-23T21:45:56;99596.13;;;18.94;58.54
75072;BME280;63651;55.728;38.022;2023-05-23T21:50:57;99595.25;;;18.89;57.77
75072;BME280;63651;55.728;38.022;2023-05-23T21:55:58;99584.28;;;18.94;57.65
75072;BME280;63651;55.728;38.022;2023-05-23T22:00:59;99585.91;;;18.90;57.43
75072;BME280;63651;55.728;38.022;2023-05-23T22:06:00;99580.38;;;18.90;56.63
75072;BME280;63651;55.728;38.022;2023-05-23T22:11:01;99586.09;;;18.83;56.58
75072;BME280;63651;55.728;38.022;2023-05-23T22:16:04;99581.69;;;18.82;56.21
75072;BME280;63651;55.728;38.022;2023-05-23T22:21:05;99579.44;;;18.79;56.01
75072;BME280;63651;55.728;38.022;2023-05-23T22:26:06;99576.22;;;18.87;55.99
75072;BME280;63651;55.728;38.022;2023-05-23T22:31:07;99576.22;;;18.87;55.61
75072;BME280;63651;55.728;38.022;2023-05-23T22:36:09;99575.09;;;18.83;55.75
75072;BME280;63651;55.728;38.022;2023-05-23T22:41:11;99578.78;;;18.94;55.08
75072;BME280;63651;55.728;38.022;2023-05-23T22:46:12;99576.19;;;18.82;54.65
75072;BME280;63651;55.728;38.022;2023-05-23T22:51:14;99565.38;;;18.75;54.62
75072;BME280;63651;55.728;38.022;2023-05-23T22:56:16;99577.84;;;18.83;53.81
75072;BME280;63651;55.728;38.022;2023-05-23T23:01:17;99577.84;;;18.83;53.76
75072;BME280;63651;55.728;38.022;2023-05-23T23:06:18;99577.78;;;18.78;53.85
75072;BME280;63651;55.728;38.022;2023-05-23T23:11:20;99576.44;;;18.80;53.78
75072;BME280;63651;55.728;38.022;2023-05-23T23:16:21;99576.97;;;18.77;54.01
75072;BME280;63651;55.728;38.022;2023-05-23T23:21:22;99574.25;;;18.82;53.30
75072;BME280;63651;55.728;38.022;2023-05-23T23:26:23;99565.06;;;18.72;53.62
75072;BME280;63651;55.728;38.022;2023-05-23T23:31:25;99576.31;;;18.70;54.00
75072;BME280;63651;55.728;38.022;2023-05-23T23:36:26;99568.38;;;18.74;53.65
75072;BME280;63651;55.728;38.022;2023-05-23T23:41:27;99574.50;;;18.81;53.50
75072;BME280;63651;55.728;38.022;2023-05-23T23:46:28;99568.75;;;18.82;53.33
75072;BME280;63651;55.728;38.022;2023-05-23T23:51:29;99562.09;;;18.78;53.56
75072;BME280;63651;55.728;38.022;2023-05-23T23:56:32;99555.19;;;18.76;52.88
